Time;durP1;ratioP1;P1;durP2;ratioP2;P2;SDS_P1;SDS_P2;PMS_P1;PMS_P2;Temp;Humidity;BMP_temperature;BMP_pressure;BME280_temperature;BME280_humidity;BME280_pressure;Samples;Min_cycle;Max_cycle;Signal;HPM_P1;HPM_P2
2021/08/02 00:00:13;;;;;;;0.10;0.10;;;;;;;19.42;89.78;99192.84;4924377;29;20139;-75
2021/08/02 00:03:07;;;;;;;0.10;0.10;;;;;;;19.44;90.11;99180.56;4916451;29;20059;-74
2021/08/02 00:05:35;;;;;;;0.10;0.10;;;;;;;19.42;89.91;99163.53;4923518;29;20039;-77
2021/08/02 00:08:02;;;;;;;0.10;0.10;;;;;;;19.47;90.03;99152.72;4897434;29;20059;-75
2021/08/02 00:10:31;;;;;;;0.10;0.10;;;;;;;19.46;90.04;99148.31;4863564;29;20083;-75
2021/08/02 00:13:13;;;;;;;0.10;0.10;;;;;;;19.51;90.50;99142.16;4888884;29;20057;-76
2021/08/02 00:15:39;;;;;;;0.10;0.10;;;;;;;19.51;90.19;99137.50;4925293;29;20059;-77
2021/08/02 00:18:06;;;;;;;0.10;0.10;;;;;;;19.52;89.11;99127.38;4899187;29;20056;-75
2021/08/02 00:20:34;;;;;;;0.10;0.10;;;;;;;19.52;88.41;99133.72;4926845;29;20088;-76
2021/08/02 00:23:08;;;;;;;0.10;0.10;;;;;;;19.46;89.42;99145.56;4909258;29;20059;-78
2021/08/02 00:25:34;;;;;;;0.10;0.10;;;;;;;19.50;89.31;99138.56;4925910;29;20048;-77
2021/08/02 00:28:02;;;;;;;0.10;0.10;;;;;;;19.50;89.55;99141.31;4908931;29;20052;-75
2021/08/02 00:30:27;;;;;;;0.10;0.10;;;;;;;19.45;88.55;99152.13;4901254;29;20045;-75
2021/08/02 00:32:53;;;;;;;0.10;0.10;;;;;;;19.42;89.15;99144.34;4891212;29;20166;-75
2021/08/02 00:35:21;;;;;;;0.10;0.10;;;;;;;19.50;88.90;99140.47;4907680;29;20059;-75
2021/08/02 00:38:04;;;;;;;0.10;0.10;;;;;;;19.49;87.33;99138.81;4924782;29;20074;-76
2021/08/02 00:40:42;;;;;;;0.10;0.10;;;;;;;19.52;87.15;99136.47;4911394;29;20103;-75
2021/08/02 00:43:17;;;;;;;0.10;0.10;;;;;;;19.50;88.75;99135.84;4887030;29;20142;-76
2021/08/02 00:45:45;;;;;;;0.10;0.10;;;;;;;19.52;88.86;99125.50;4891063;29;20540;-75
2021/08/02 00:48:12;;;;;;;0.10;0.10;;;;;;;19.58;89.16;99126.50;4912102;29;20044;-75
2021/08/02 00:50:42;;;;;;;0.10;0.10;;;;;;;19.59;88.88;99125.41;4911156;29;20399;-74
2021/08/02 00:53:21;;;;;;;0.10;0.10;;;;;;;19.58;89.52;99126.50;4906539;29;20059;-75
2021/08/02 00:55:56;;;;;;;0.10;0.10;;;;;;;19.61;88.15;99119.72;4928878;29;20605;-75
2021/08/02 00:58:27;;;;;;;0.10;0.10;;;;;;;19.67;87.72;99113.38;4907225;29;20052;-76
2021/08/02 01:00:53;;;;;;;0.10;0.10;;;;;;;19.70;88.60;99101.97;4912255;29;20051;-76
2021/08/02 01:03:29;;;;;;;0.10;0.10;;;;;;;19.69;88.18;99108.50;4895346;29;20103;-77
2021/08/02 01:05:58;;;;;;;0.10;0.10;;;;;;;19.65;87.92;99110.03;4878849;29;20099;-78
2021/08/02 01:08:28;;;;;;;0.10;0.10;;;;;;;19.61;88.36;99109.59;4899978;29;20511;-76
2021/08/02 01:10:56;;;;;;;0.10;0.10;;;;;;;19.45;88.58;99108.25;4888134;29;20503;-76
2021/08/02 01:13:25;;;;;;;0.10;0.10;;;;;;;19.50;87.94;99113.06;4886296;29;20099;-77
2021/08/02 01:15:54;;;;;;;0.10;0.10;;;;;;;19.51;87.26;99104.59;4873776;29;20048;-75
2021/08/02 01:18:25;;;;;;;0.10;0.10;;;;;;;19.56;86.02;99109.41;4884670;29;20135;-77
2021/08/02 01:20:53;;;;;;;0.10;0.10;;;;;;;19.58;86.17;99103.72;4852649;29;20079;-76
2021/08/02 01:23:21;;;;;;;0.10;0.10;;;;;;;19.61;84.35;99109.59;4885684;29;20055;-77
2021/08/02 01:25:57;;;;;;;0.10;0.10;;;;;;;19.63;84.84;99112.13;4879752;29;20166;-77
2021/08/02 01:28:25;;;;;;;0.10;0.10;;;;;;;19.60;83.51;99112.53;4884073;29;20422;-78
2021/08/02 01:30:54;;;;;;;0.10;0.10;;;;;;;19.67;82.13;99102.41;4904311;29;20059;-75
2021/08/02 01:33:28;;;;;;;0.10;0.10;;;;;;;19.67;82.81;99102.41;4872449;29;20052;-77
2021/08/02 01:35:58;;;;;;;0.10;0.10;;;;;;;19.72;81.38;99108.06;4888104;29;20573;-77
2021/08/02 01:38:25;;;;;;;0.10;0.10;;;;;;;19.73;81.26;99107.00;4873493;29;20099;-76
2021/08/02 01:40:52;;;;;;;0.10;0.10;;;;;;;19.71;83.21;99111.88;4907920;29;20074;-76
2021/08/02 01:43:19;;;;;;;0.10;0.10;;;;;;;19.72;83.77;99119.03;4866943;29;20136;-76
2021/08/02 01:45:54;;;;;;;0.10;0.10;;;;;;;19.69;84.04;99109.34;4907731;29;20585;-76
2021/08/02 01:48:24;;;;;;;0.10;0.10;;;;;;;19.67;85.26;99107.88;4901461;29;20129;-78
2021/08/02 01:51:03;;;;;;;0.10;0.10;;;;;;;19.64;85.59;99114.69;4873632;29;20136;-76
2021/08/02 01:53:36;;;;;;;0.10;0.10;;;;;;;19.56;85.46;99106.66;4905937;29;20181;-78
2021/08/02 01:56:07;;;;;;;0.10;0.10;;;;;;;19.55;87.14;99106.91;4857534;29;20048;-75
2021/08/02 01:58:44;;;;;;;0.10;0.10;;;;;;;19.51;86.67;99107.34;4887330;29;20044;-77
2021/08/02 02:01:24;;;;;;;0.10;0.10;;;;;;;19.49;86.95;99106.75;4892957;29;20070;-77
2021/08/02 02:03:52;;;;;;;0.10;0.10;;;;;;;19.41;87.24;99098.75;4909453;29;20070;-78
2021/08/02 02:06:24;;;;;;;0.10;0.10;;;;;;;19.38;87.44;99112.94;4911289;29;20083;-76
2021/08/02 02:08:58;;;;;;;0.10;0.10;;;;;;;19.36;87.91;99101.34;4924263;29;20059;-76
2021/08/02 02:11:29;;;;;;;0.10;0.10;;;;;;;19.27;88.66;99094.47;4876626;29;20040;-77
2021/08/02 02:14:04;;;;;;;0.10;0.10;;;;;;;19.25;88.37;99099.31;4906741;29;20056;-76
2021/08/02 02:16:31;;;;;;;0.10;0.10;;;;;;;19.26;88.53;99099.09;4903222;29;20048;-77
2021/08/02 02:19:02;;;;;;;0.10;0.10;;;;;;;19.29;88.19;99095.06;4876431;29;20136;-76
2021/08/02 02:21:30;;;;;;;0.10;0.10;;;;;;;19.27;87.87;99097.22;4912895;29;20063;-77
2021/08/02 02:24:01;;;;;;;0.10;0.10;;;;;;;19.26;87.54;99095.50;4913974;29;20115;-76
2021/08/02 02:26:31;;;;;;;0.10;0.10;;;;;;;19.26;87.76;99090.03;4907570;29;20514;-76
2021/08/02 02:29:00;;;;;;;0.10;0.10;;;;;;;19.25;88.13;99091.09;4909298;29;20044;-77
2021/08/02 02:31:27;;;;;;;0.10;0.10;;;;;;;19.19;88.13;99083.75;4915772;29;20134;-76
2021/08/02 02:33:59;;;;;;;0.10;0.10;;;;;;;19.20;88.30;99096.41;4908356;29;20501;-77
2021/08/02 02:36:27;;;;;;;0.10;0.10;;;;;;;19.16;88.32;99092.41;4912008;29;20079;-77
2021/08/02 02:38:53;;;;;;;0.10;0.10;;;;;;;19.13;88.56;99090.13;4880191;29;20079;-77
2021/08/02 02:41:22;;;;;;;0.10;0.10;;;;;;;19.07;88.59;99089.09;4907333;29;20087;-77
2021/08/02 02:43:51;;;;;;;0.10;0.10;;;;;;;19.07;88.40;99080.03;4898039;29;20092;-78
2021/08/02 02:46:19;;;;;;;0.10;0.10;;;;;;;19.06;88.53;99094.81;4928758;29;20063;-78
2021/08/02 02:48:46;;;;;;;0.10;0.10;;;;;;;19.08;89.20;99081.72;4905549;29;20047;-76
2021/08/02 02:51:14;;;;;;;0.10;0.10;;;;;;;19.06;89.26;99072.88;4927049;29;20390;-79
2021/08/02 02:53:41;;;;;;;0.10;0.10;;;;;;;19.14;88.80;99076.19;4878031;29;20043;-76
2021/08/02 02:56:09;;;;;;;0.10;0.10;;;;;;;19.20;87.11;99082.72;4895450;29;20062;-79
2021/08/02 02:58:37;;;;;;;0.15;0.15;;;;;;;19.39;87.04;99083.63;4907319;29;20067;-78
2021/08/02 03:01:04;;;;;;;0.10;0.10;;;;;;;19.49;87.31;99093.03;4903856;29;20062;-78
2021/08/02 03:03:33;;;;;;;0.10;0.10;;;;;;;19.50;87.49;99102.94;4925742;29;20047;-76
2021/08/02 03:06:00;;;;;;;0.10;0.10;;;;;;;19.44;87.77;99102.97;4911280;29;20084;-75
2021/08/02 03:08:27;;;;;;;0.10;0.10;;;;;;;19.45;86.44;99111.00;4927917;29;20052;-76
2021/08/02 03:10:53;;;;;;;0.10;0.10;;;;;;;19.39;85.20;99105.56;4894817;29;20056;-77
2021/08/02 03:13:21;;;;;;;0.10;0.10;;;;;;;19.44;86.45;99109.28;4876045;29;20067;-78
2021/08/02 03:15:47;;;;;;;0.10;0.10;;;;;;;19.45;85.37;99113.75;4923168;29;20182;-77
2021/08/02 03:18:13;;;;;;;0.10;0.10;;;;;;;19.47;85.21;99129.94;4915758;29;20375;-76
2021/08/02 03:20:42;;;;;;;0.10;0.10;;;;;;;19.44;85.20;99124.91;4910259;29;20070;-78
2021/08/02 03:23:13;;;;;;;0.10;0.10;;;;;;;19.45;85.58;99124.69;4925329;29;20517;-80
2021/08/02 03:25:42;;;;;;;0.10;0.10;;;;;;;19.43;84.96;99107.63;4902729;29;20067;-76
2021/08/02 03:28:26;;;;;;;0.10;0.10;;;;;;;19.48;84.93;99094.06;4886001;29;20048;-76
2021/08/02 03:30:54;;;;;;;0.10;0.10;;;;;;;19.60;84.98;99093.34;4907335;29;20576;-77
2021/08/02 03:33:27;;;;;;;0.17;0.17;;;;;;;19.75;84.01;99100.22;4916821;29;20059;-78
2021/08/02 03:35:54;;;;;;;0.20;0.20;;;;;;;20.02;83.45;99110.97;4912219;29;20071;-77
2021/08/02 03:38:20;;;;;;;0.20;0.20;;;;;;;20.34;82.72;99125.41;4876788;29;20135;-78
2021/08/02 03:40:47;;;;;;;0.20;0.20;;;;;;;20.59;82.42;99111.66;4911973;29;20056;-81
2021/08/02 03:43:15;;;;;;;0.20;0.20;;;;;;;20.91;80.12;99108.69;4906260;29;20040;-80
2021/08/02 03:45:42;;;;;;;0.20;0.20;;;;;;;21.19;79.36;99106.19;4909633;29;20107;-77
2021/08/02 03:48:08;;;;;;;0.20;0.20;;;;;;;21.45;78.57;99117.06;4927281;29;20555;-77
2021/08/02 03:50:34;;;;;;;0.10;0.10;;;;;;;21.68;77.07;99119.84;4880618;29;20062;-78
2021/08/02 03:53:00;;;;;;;0.10;0.10;;;;;;;21.95;76.11;99120.28;4925486;29;20048;-78
2021/08/02 03:55:30;;;;;;;0.15;0.15;;;;;;;22.19;74.64;99110.13;4890497;29;20056;-79
2021/08/02 03:57:56;;;;;;;0.20;0.20;;;;;;;22.38;74.38;99119.09;4884255;29;20538;-84
2021/08/02 04:00:24;;;;;;;0.20;0.20;;;;;;;22.56;69.62;99112.59;4911854;29;20508;-79
2021/08/02 04:02:50;;;;;;;0.20;0.20;;;;;;;22.57;69.59;99106.00;4897315;29;20055;-77
2021/08/02 04:05:17;;;;;;;0.20;0.20;;;;;;;22.85;68.75;99108.81;4925389;29;20055;-79
2021/08/02 04:07:45;;;;;;;0.20;0.20;;;;;;;22.94;68.81;99122.25;4927421;29;20074;-78
2021/08/02 04:10:12;;;;;;;0.17;0.17;;;;;;;22.92;69.24;99127.97;4909793;29;20156;-78
2021/08/02 04:12:39;;;;;;;0.10;0.10;;;;;;;22.97;68.99;99127.28;4909121;29;20151;-78
2021/08/02 04:15:08;;;;;;;0.20;0.20;;;;;;;23.05;69.02;99124.13;4910735;29;20075;-76
2021/08/02 04:17:35;;;;;;;0.10;0.10;;;;;;;23.03;69.11;99109.72;4929120;29;20134;-80
2021/08/02 04:20:01;;;;;;;0.10;0.10;;;;;;;22.95;69.13;99113.72;4908351;29;20473;-80
2021/08/02 04:22:27;;;;;;;0.20;0.20;;;;;;;23.25;69.24;99099.69;4926148;29;20466;-76
2021/08/02 04:24:53;;;;;;;0.20;0.20;;;;;;;23.18;69.20;99079.72;4920343;29;20132;-81
2021/08/02 04:27:18;;;;;;;0.10;0.10;;;;;;;23.41;68.44;99077.91;4904277;29;20398;-80
2021/08/02 04:29:44;;;;;;;0.20;0.20;;;;;;;23.62;68.77;99071.66;4909864;29;20063;-82
2021/08/02 04:32:10;;;;;;;0.30;0.30;;;;;;;23.77;68.25;99071.94;4925507;29;20181;-78
2021/08/02 04:34:37;;;;;;;0.20;0.20;;;;;;;23.98;67.77;99083.28;4926504;29;20055;-79
2021/08/02 04:37:03;;;;;;;0.20;0.20;;;;;;;24.17;67.11;99079.16;4924621;29;20139;-79
2021/08/02 04:39:28;;;;;;;0.20;0.20;;;;;;;24.10;66.81;99069.41;4921855;29;20055;-78
2021/08/02 04:41:55;;;;;;;0.30;0.30;;;;;;;23.99;67.68;99063.72;4925525;29;20466;-79
2021/08/02 04:44:22;;;;;;;0.20;0.20;;;;;;;24.40;66.35;99056.03;4905345;29;20063;-79
2021/08/02 04:46:48;;;;;;;0.28;0.28;;;;;;;24.78;65.40;99077.22;4918087;29;20048;-83
2021/08/02 04:49:14;;;;;;;0.20;0.20;;;;;;;24.93;65.16;99078.50;4897974;29;20055;-79
2021/08/02 04:51:40;;;;;;;0.20;0.20;;;;;;;24.85;66.06;99076.19;4925240;29;20044;-80
2021/08/02 04:54:06;;;;;;;0.20;0.20;;;;;;;24.76;66.49;99073.91;4907494;29;20048;-82
2021/08/02 04:56:32;;;;;;;0.30;0.30;;;;;;;25.02;66.08;99079.72;4924498;29;20612;-78
2021/08/02 04:58:58;;;;;;;0.30;0.30;;;;;;;25.35;65.06;99080.66;4927723;29;20056;-80
2021/08/02 05:01:24;;;;;;;0.30;0.30;;;;;;;25.00;65.97;99085.50;4922309;29;20150;-79
2021/08/02 05:03:51;;;;;;;0.30;0.30;;;;;;;25.38;64.65;99080.97;4906231;29;20434;-80
2021/08/02 05:06:17;;;;;;;0.30;0.30;;;;;;;25.66;63.67;99077.03;4918394;29;20055;-79
2021/08/02 05:08:43;;;;;;;0.20;0.20;;;;;;;25.67;63.17;99066.84;4903591;29;20071;-79
2021/08/02 05:11:08;;;;;;;0.20;0.20;;;;;;;25.40;64.11;99069.63;4924421;29;20082;-79
2021/08/02 05:13:34;;;;;;;0.20;0.20;;;;;;;25.31;64.57;99065.69;4879967;29;20130;-79
2021/08/02 05:16:00;;;;;;;0.20;0.20;;;;;;;25.34;64.19;99062.34;4911463;29;20047;-78
2021/08/02 05:18:26;;;;;;;0.30;0.30;;;;;;;25.36;64.48;99060.19;4926087;29;20074;-81
2021/08/02 05:20:52;;;;;;;0.20;0.20;;;;;;;25.50;64.82;99058.66;4921447;29;20060;-82
2021/08/02 05:23:18;;;;;;;0.20;0.20;;;;;;;25.23;64.92;99073.34;4909226;29;20036;-79
2021/08/02 05:25:44;;;;;;;0.20;0.20;;;;;;;24.96;65.41;99072.47;4889410;29;20055;-79
2021/08/02 05:28:10;;;;;;;0.50;0.50;;;;;;;25.77;63.27;99077.13;4924083;29;20055;-81
2021/08/02 05:30:36;;;;;;;0.30;0.30;;;;;;;26.15;61.71;99074.13;4913816;29;20131;-81
2021/08/02 05:33:03;;;;;;;0.40;0.40;;;;;;;26.45;61.25;99072.63;4888665;29;20055;-80
2021/08/02 05:35:29;;;;;;;0.40;0.40;;;;;;;27.12;58.75;99071.81;4903051;29;20123;-80
2021/08/02 05:37:55;;;;;;;0.40;0.40;;;;;;;26.97;59.37;99080.09;4880738;29;20106;-79
2021/08/02 05:40:21;;;;;;;0.40;0.40;;;;;;;27.30;57.87;99072.44;4911748;29;20056;-81
2021/08/02 05:42:48;;;;;;;0.55;0.55;;;;;;;27.42;56.98;99061.88;4879867;29;20052;-79
2021/08/02 05:45:14;;;;;;;0.40;0.40;;;;;;;27.25;56.68;99061.31;4896071;29;20060;-80
2021/08/02 05:47:41;;;;;;;0.30;0.30;;;;;;;27.08;57.11;99067.91;4900067;29;20039;-81
2021/08/02 05:50:08;;;;;;;0.30;0.30;;;;;;;26.99;58.29;99063.19;4893379;29;20055;-78
2021/08/02 05:52:33;;;;;;;0.30;0.30;;;;;;;26.48;59.51;99069.34;4917202;29;20119;-83
2021/08/02 05:54:59;;;;;;;0.40;0.40;;;;;;;26.83;59.35;99076.16;4917544;29;20502;-81
2021/08/02 05:57:26;;;;;;;0.50;0.50;;;;;;;27.56;57.16;99065.78;4886173;29;20036;-82
2021/08/02 05:59:52;;;;;;;0.65;0.65;;;;;;;28.16;55.55;99068.00;4904393;29;20071;-81
2021/08/02 06:02:18;;;;;;;0.50;0.50;;;;;;;28.16;55.24;99060.50;4910326;29;20183;-84
2021/08/02 06:04:44;;;;;;;0.40;0.40;;;;;;;28.44;54.39;99061.00;4896870;29;20186;-86
2021/08/02 06:07:11;;;;;;;0.30;0.30;;;;;;;27.93;55.90;99067.47;4908164;29;20105;-84
2021/08/02 06:09:39;;;;;;;0.28;0.28;;;;;;;27.25;57.44;99064.94;4891785;29;20052;-83
2021/08/02 06:12:05;;;;;;;0.60;0.60;;;;;;;27.14;57.54;99054.91;4887519;29;20049;-84
2021/08/02 06:14:32;;;;;;;0.60;0.60;;;;;;;27.49;57.08;99064.38;4878750;29;20055;-80
2021/08/02 06:16:58;;;;;;;0.60;0.60;;;;;;;28.13;54.54;99042.44;4917609;29;20120;-84
2021/08/02 06:19:25;;;;;;;0.30;0.30;;;;;;;27.14;56.12;99035.50;4885567;29;20055;-84
2021/08/02 06:21:52;;;;;;;0.40;0.40;;;;;;;27.06;57.28;99044.31;4909006;29;20052;-84
2021/08/02 06:24:20;;;;;;;0.80;0.80;;;;;;;27.90;54.72;99054.16;4908986;29;20060;-83
2021/08/02 06:26:46;;;;;;;0.30;0.30;;;;;;;28.26;53.59;99041.00;4903657;29;20148;-83
2021/08/02 06:29:14;;;;;;;0.20;0.20;;;;;;;27.60;54.65;99050.22;4906383;29;20048;-83
2021/08/02 06:31:40;;;;;;;0.20;0.20;;;;;;;27.32;56.31;99039.69;4905991;29;20541;-83
2021/08/02 06:34:07;;;;;;;0.30;0.30;;;;;;;28.10;54.49;99043.00;4916890;29;20128;-83
2021/08/02 06:36:33;;;;;;;0.40;0.40;;;;;;;28.04;54.27;99046.88;4889968;29;20040;-81
2021/08/02 06:38:59;;;;;;;0.20;0.20;;;;;;;26.97;57.10;99057.06;4920096;29;20588;-83
2021/08/02 06:41:25;;;;;;;0.10;0.10;;;;;;;26.36;59.12;99057.59;4902663;29;20142;-83
2021/08/02 06:43:52;;;;;;;0.10;0.10;;;;;;;25.79;61.84;99061.97;4907170;29;20059;-84
2021/08/02 06:46:19;;;;;;;0.10;0.10;;;;;;;25.36;63.49;99065.72;4909163;29;20044;-84
2021/08/02 06:48:45;;;;;;;0.10;0.10;;;;;;;24.99;64.70;99055.34;4908594;29;20518;-82
2021/08/02 06:51:12;;;;;;;0.10;0.10;;;;;;;24.46;66.46;99062.44;4875616;29;20071;-84
2021/08/02 06:53:40;;;;;;;0.10;0.10;;;;;;;24.38;67.26;99073.91;4886668;29;20052;-83
2021/08/02 06:56:06;;;;;;;0.00;0.00;;;;;;;24.05;68.76;99073.72;4920686;29;20139;-83
2021/08/02 06:58:34;;;;;;;0.10;0.10;;;;;;;23.86;69.29;99068.75;4875008;29;20064;-83
2021/08/02 07:01:01;;;;;;;0.10;0.10;;;;;;;23.81;70.23;99066.75;4890263;29;20052;-82
2021/08/02 07:03:29;;;;;;;0.03;0.03;;;;;;;23.65;70.41;99068.38;4899278;29;20047;-85
2021/08/02 07:05:56;;;;;;;0.10;0.10;;;;;;;23.70;70.86;99065.75;4891359;29;20052;-82
2021/08/02 07:08:24;;;;;;;0.10;0.10;;;;;;;23.59;71.35;99077.66;4924835;29;20059;-85
2021/08/02 07:10:52;;;;;;;0.10;0.10;;;;;;;23.69;71.41;99082.53;4929833;29;20067;-83
2021/08/02 07:13:18;;;;;;;0.10;0.10;;;;;;;23.77;71.81;99088.50;4900625;29;20500;-82
2021/08/02 07:15:44;;;;;;;0.10;0.10;;;;;;;23.74;71.80;99077.94;4910696;29;20138;-83
2021/08/02 07:18:10;;;;;;;0.10;0.10;;;;;;;23.77;72.65;99077.44;4906358;29;20446;-81
2021/08/02 07:20:37;;;;;;;0.10;0.10;;;;;;;23.67;73.01;99082.81;4916984;29;20053;-82
2021/08/02 07:23:03;;;;;;;0.10;0.10;;;;;;;23.59;73.37;99069.41;4907249;29;20082;-84
2021/08/02 07:25:29;;;;;;;0.10;0.10;;;;;;;23.45;74.03;99073.56;4919012;29;20048;-82
2021/08/02 07:27:57;;;;;;;0.10;0.10;;;;;;;23.39;74.84;99077.31;4907529;29;20048;-83
2021/08/02 07:30:24;;;;;;;0.00;0.00;;;;;;;23.14;75.44;99078.50;4893944;29;20060;-85
2021/08/02 07:32:52;;;;;;;0.10;0.10;;;;;;;23.03;75.59;99073.88;4915811;29;20040;-83
2021/08/02 07:35:19;;;;;;;0.10;0.10;;;;;;;22.84;76.12;99079.56;4903661;29;20052;-84
2021/08/02 07:37:49;;;;;;;0.10;0.10;;;;;;;22.79;76.57;99067.63;4914494;29;20375;-82
2021/08/02 07:40:18;;;;;;;0.10;0.10;;;;;;;22.76;76.93;99052.41;5438469;23;20064;-85
2021/08/02 07:42:48;;;;;;;0.10;0.10;;;;;;;22.75;77.58;99047.13;5249837;23;20056;-83
2021/08/02 07:45:16;;;;;;;0.10;0.10;;;;;;;22.70;77.61;99050.59;4921210;29;20155;-85
2021/08/02 07:47:45;;;;;;;0.10;0.10;;;;;;;22.66;77.55;99059.63;4903283;29;20040;-85
2021/08/02 07:50:15;;;;;;;0.10;0.10;;;;;;;22.55;78.77;99042.88;4919180;29;20068;-84
2021/08/02 07:52:44;;;;;;;0.10;0.10;;;;;;;22.45;78.52;99030.81;4923405;29;20406;-84
2021/08/02 07:55:12;;;;;;;0.10;0.10;;;;;;;22.53;78.54;99022.19;4919277;29;20052;-86
2021/08/02 08:00:57;;;;;;;0.10;0.10;;;;;;;22.41;79.97;99057.16;5045607;23;20061;-88
2021/08/02 08:06:28;;;;;;;0.10;0.10;;;;;;;22.51;80.76;99007.81;5355163;24;20121;-84
2021/08/02 08:08:55;;;;;;;0.10;0.10;;;;;;;22.76;79.04;98996.44;4853154;29;20057;-86
2021/08/02 08:17:19;;;;;;;;;;;;;;;24.35;71.77;98941.81;4823651;29;20077;-84
2021/08/02 08:19:49;;;;;;;0.30;0.30;;;;;;;25.23;69.72;98946.06;5029895;24;19997;-85
2021/08/02 08:22:17;;;;;;;1.10;1.10;;;;;;;26.96;64.24;98942.47;4878475;29;20058;-86
2021/08/02 08:25:05;;;;;;;0.82;0.82;;;;;;;28.55;58.95;98926.34;4947767;23;20036;31
2021/08/02 08:27:34;;;;;;;0.80;0.80;;;;;;;29.69;55.67;98939.13;5637323;24;20032;-87
2021/08/02 08:32:59;;;;;;;0.70;0.70;;;;;;;31.22;51.46;98931.53;4859929;29;20061;-85
2021/08/02 08:41:52;;;;;;;0.85;0.85;;;;;;;33.42;45.31;98935.38;5354621;24;20148;-85
2021/08/02 08:44:33;;;;;;;0.90;0.90;;;;;;;33.82;44.10;98928.75;5197140;24;20094;-86
2021/08/02 08:47:01;;;;;;;0.77;0.77;;;;;;;34.61;43.83;98920.59;4835707;29;20528;-84
2021/08/02 08:49:30;;;;;;;0.20;0.20;;;;;;;33.60;43.74;98917.53;4951425;24;20066;-84
2021/08/02 08:52:02;;;;;;;0.80;0.80;;;;;;;33.71;42.66;98906.88;4845363;29;20065;-84
2021/08/02 08:54:32;;;;;;;0.63;0.63;;;;;;;33.64;42.37;98912.97;4877871;24;20078;-85
2021/08/02 08:57:11;;;;;;;1.00;1.00;;;;;;;32.47;44.19;98911.03;4834691;29;20062;-86
2021/08/02 08:59:52;;;;;;;0.60;0.60;;;;;;;33.49;43.38;98900.19;4804521;29;20102;-88
2021/08/02 09:02:29;;;;;;;0.57;0.57;;;;;;;34.47;38.77;98907.50;4892677;24;20547;-85
2021/08/02 09:13:37;;;;;;;0.20;0.20;;;;;;;32.54;43.64;98883.44;4843167;29;20146;-88
2021/08/02 09:21:57;;;;;;;0.80;0.80;;;;;;;35.01;37.02;98867.94;5645484;23;20117;-87
2021/08/02 09:24:34;;;;;;;0.63;0.63;;;;;;;35.14;36.69;98869.75;4955213;24;20089;-86
2021/08/02 09:27:02;;;;;;;0.70;0.70;;;;;;;35.80;35.86;98865.72;5206371;24;20029;-86
2021/08/02 09:29:33;;;;;;;0.70;0.70;;;;;;;35.74;35.65;98853.88;4960783;24;20057;-86
2021/08/02 09:38:12;;;;;;;0.50;0.50;;;;;;;34.65;35.03;98840.97;5428365;24;20069;-86
2021/08/02 09:50:45;;;;;;;0.70;0.70;;;;;;;35.61;35.21;98838.84;5424913;24;20102;31
2021/08/02 09:53:24;;;;;;;0.73;0.73;;;;;;;35.54;35.14;98829.28;5351852;24;20037;31
2021/08/02 09:55:55;;;;;;;0.70;0.70;;;;;;;34.73;36.36;98840.16;5214524;24;20060;-86
2021/08/02 09:58:23;;;;;;;0.70;0.70;;;;;;;34.99;37.03;98836.50;4946036;24;20030;-85
2021/08/02 10:01:13;;;;;;;0.70;0.70;;;;;;;36.14;35.05;98814.94;5280358;24;20030;31
2021/08/02 10:06:45;;;;;;;0.70;0.70;;;;;;;36.10;36.14;98819.59;5597137;24;19924;-87
2021/08/02 10:09:28;;;;;;;0.60;0.60;;;;;;;37.16;34.56;98822.06;5082420;24;20077;31
2021/08/02 10:30:23;;;;;;;0.20;0.20;;;;;;;31.15;43.32;98819.41;4941788;24;20063;-88
2021/08/02 10:32:59;;;;;;;0.15;0.15;;;;;;;30.95;43.81;98817.81;5319301;24;20027;-85
2021/08/02 10:41:33;;;;;;;0.00;0.00;;;;;;;29.92;47.72;98818.47;4948868;24;20056;-85
2021/08/02 10:44:14;;;;;;;0.10;0.10;;;;;;;29.46;48.80;98804.25;4749801;29;20588;-85
2021/08/02 10:46:42;;;;;;;0.10;0.10;;;;;;;29.39;49.47;98823.28;5156720;24;20068;-85
2021/08/02 10:49:15;;;;;;;0.10;0.10;;;;;;;29.48;48.95;98811.19;4708902;30;20048;-83
2021/08/02 10:51:56;;;;;;;0.10;0.10;;;;;;;29.53;49.30;98811.13;4730366;30;20531;-84
2021/08/02 10:54:36;;;;;;;0.10;0.10;;;;;;;29.55;49.49;98811.66;4719977;30;20040;-85
2021/08/02 10:57:13;;;;;;;0.10;0.10;;;;;;;29.51;50.02;98810.59;4954337;24;20063;-84
2021/08/02 11:00:05;;;;;;;0.00;0.00;;;;;;;29.15;50.63;98806.56;4796406;24;20096;31
2021/08/02 11:05:38;;;;;;;0.10;0.10;;;;;;;28.83;51.50;98810.72;5647061;24;20006;31
2021/08/02 11:17:52;;;;;;;0.10;0.10;;;;;;;28.74;52.97;98795.75;4708441;30;19922;-85
2021/08/02 11:20:21;;;;;;;0.10;0.10;;;;;;;28.72;53.07;98800.78;4832924;24;20056;-85
2021/08/02 11:23:10;;;;;;;0.10;0.10;;;;;;;28.99;53.17;98795.53;4942118;24;20035;31
2021/08/02 11:25:39;;;;;;;0.10;0.10;;;;;;;29.02;53.15;98800.53;4757320;30;20106;-84
2021/08/02 11:28:07;;;;;;;0.10;0.10;;;;;;;29.16;53.40;98794.28;4753477;30;20068;-84
2021/08/02 11:30:37;;;;;;;0.10;0.10;;;;;;;28.99;53.68;98792.75;4763416;30;20083;-87
2021/08/02 11:33:05;;;;;;;0.10;0.10;;;;;;;28.91;53.85;98793.38;4861400;24;20067;-83
2021/08/02 11:35:38;;;;;;;0.10;0.10;;;;;;;28.85;53.93;98786.22;4941120;24;20128;-83
2021/08/02 11:38:07;;;;;;;0.10;0.10;;;;;;;28.93;53.78;98777.22;4732680;30;20061;-82
2021/08/02 11:40:37;;;;;;;0.20;0.20;;;;;;;29.01;53.52;98784.97;4735599;30;20061;-82
2021/08/02 11:43:06;;;;;;;0.10;0.10;;;;;;;29.14;53.35;98772.28;4723173;30;20075;-84
2021/08/02 11:45:34;;;;;;;0.10;0.10;;;;;;;28.84;54.07;98767.84;4734207;30;20102;-83
2021/08/02 11:48:07;;;;;;;0.10;0.10;;;;;;;28.79;53.67;98765.94;4734993;30;20052;-84
2021/08/02 11:50:35;;;;;;;0.10;0.10;;;;;;;28.64;53.77;98762.47;4759291;30;20056;-84
2021/08/02 11:53:04;;;;;;;0.10;0.10;;;;;;;28.53;54.46;98768.13;4719322;30;20052;-83
2021/08/02 11:55:33;;;;;;;0.10;0.10;;;;;;;28.42;54.95;98768.50;4757200;30;20052;-83
2021/08/02 11:58:01;;;;;;;0.10;0.10;;;;;;;28.33;55.03;98751.56;4740492;30;20082;-83
2021/08/02 12:00:29;;;;;;;0.00;0.00;;;;;;;28.11;55.54;98752.81;4713879;30;20076;-84
2021/08/02 12:03:11;;;;;;;0.10;0.10;;;;;;;27.97;56.05;98760.13;4744238;30;20057;-83
2021/08/02 12:05:39;;;;;;;0.10;0.10;;;;;;;28.10;55.95;98742.84;4747715;30;20081;-85
2021/08/02 12:08:16;;;;;;;0.10;0.10;;;;;;;28.09;55.94;98748.69;4733314;30;20079;-85
2021/08/02 12:11:06;;;;;;;0.10;0.10;;;;;;;28.27;55.63;98724.94;4761041;30;20056;-83
2021/08/02 12:13:44;;;;;;;0.10;0.10;;;;;;;28.39;55.26;98728.19;4731117;30;20059;-84
2021/08/02 12:16:12;;;;;;;0.10;0.10;;;;;;;28.69;54.73;98715.97;4750291;30;20060;-84
2021/08/02 12:18:40;;;;;;;0.20;0.20;;;;;;;29.14;53.75;98710.22;4715248;30;20342;-83
2021/08/02 12:21:17;;;;;;;0.10;0.10;;;;;;;29.44;53.35;98714.63;4749404;30;20094;-83
2021/08/02 12:23:46;;;;;;;0.50;0.50;;;;;;;30.40;50.94;98692.88;4735073;30;20061;-84
2021/08/02 12:26:17;;;;;;;0.35;0.35;;;;;;;31.57;48.50;98698.19;4724183;30;20064;-84
2021/08/02 12:28:45;;;;;;;0.40;0.40;;;;;;;32.11;46.72;98692.81;4733150;30;20044;-84
2021/08/02 12:31:23;;;;;;;0.20;0.20;;;;;;;32.20;46.71;98682.50;4730968;30;20052;-84
2021/08/02 12:33:52;;;;;;;0.30;0.30;;;;;;;32.72;45.07;98677.25;4713495;30;20067;-82
2021/08/02 12:36:21;;;;;;;0.30;0.30;;;;;;;32.96;44.34;98687.31;4715176;30;20172;-84
2021/08/02 12:38:50;;;;;;;0.10;0.10;;;;;;;32.37;45.37;98670.63;4743144;30;20053;-83
2021/08/02 12:41:19;;;;;;;0.10;0.10;;;;;;;31.88;45.77;98662.00;4744355;30;20064;-83
2021/08/02 12:43:46;;;;;;;0.10;0.10;;;;;;;31.39;47.11;98658.06;4738847;30;20056;-83
2021/08/02 12:46:15;;;;;;;0.10;0.10;;;;;;;31.06;47.96;98659.31;4731856;30;20129;-83
2021/08/02 12:48:41;;;;;;;0.10;0.10;;;;;;;31.03;48.18;98659.94;4749267;30;20153;-83
2021/08/02 12:51:10;;;;;;;0.10;0.10;;;;;;;30.85;48.94;98642.97;4741488;30;20095;-83
2021/08/02 12:53:38;;;;;;;0.10;0.10;;;;;;;30.80;48.67;98634.69;4716241;30;20056;-82
2021/08/02 12:56:07;;;;;;;0.10;0.10;;;;;;;30.43;49.29;98622.53;4733913;30;20049;-82
2021/08/02 12:58:35;;;;;;;0.10;0.10;;;;;;;30.48;49.66;98616.84;4717735;30;20048;-82
2021/08/02 13:01:02;;;;;;;0.08;0.08;;;;;;;30.20;49.83;98620.72;4729426;30;20120;-83
2021/08/02 13:03:29;;;;;;;0.10;0.10;;;;;;;30.09;50.15;98624.78;4728805;30;20055;-83
2021/08/02 13:05:56;;;;;;;0.10;0.10;;;;;;;29.97;50.81;98614.94;4727303;30;20057;-82
2021/08/02 13:08:24;;;;;;;0.10;0.10;;;;;;;30.26;50.05;98605.56;4792518;24;20056;-84
2021/08/02 13:10:53;;;;;;;0.10;0.10;;;;;;;30.47;49.89;98604.03;4758093;30;20068;-83
2021/08/02 13:13:20;;;;;;;0.10;0.10;;;;;;;30.60;49.89;98596.00;4763349;30;20079;-84
2021/08/02 13:15:51;;;;;;;0.10;0.10;;;;;;;30.71;49.35;98580.69;4754937;30;20110;-84